sensor_id;sensor_type;location;lat;lon;timestamp;pressure;altitude;pressure_sealevel;temperature;humidity
75759;BME280;64371;47.566;19.086;2023-04-03T00:00:44;100337.28;;;6.66;64.07
75759;BME280;64371;47.566;19.086;2023-04-03T00:03:46;100343.66;;;6.76;63.98
75759;BME280;64371;47.566;19.086;2023-04-03T00:06:49;100332.91;;;6.77;62.27
75759;BME280;64371;47.566;19.086;2023-04-03T00:09:51;100337.81;;;6.68;62.72
75759;BME280;64371;47.566;19.086;2023-04-03T00:12:54;100335.78;;;6.76;62.80
75759;BME280;64371;47.566;19.086;2023-04-03T00:15:56;100338.19;;;6.82;63.59
75759;BME280;64371;47.566;19.086;2023-04-03T00:18:58;100336.78;;;6.69;62.72
75759;BME280;64371;47.566;19.086;2023-04-03T00:22:00;100338.56;;;6.59;63.01
75759;BME280;64371;47.566;19.086;2023-04-03T00:25:03;100341.41;;;6.52;63.71
75759;BME280;64371;47.566;19.086;2023-04-03T00:28:06;100344.16;;;6.36;64.42
75759;BME280;64371;47.566;19.086;2023-04-03T00:31:09;100335.47;;;6.30;64.00
75759;BME280;64371;47.566;19.086;2023-04-03T00:34:11;100341.69;;;6.19;64.24
75759;BME280;64371;47.566;19.086;2023-04-03T00:37:14;100327.75;;;6.14;64.25
75759;BME280;64371;47.566;19.086;2023-04-03T00:40:17;100344.31;;;6.19;64.53
75759;BME280;64371;47.566;19.086;2023-04-03T00:43:22;100349.28;;;6.21;63.70
75759;BME280;64371;47.566;19.086;2023-04-03T00:46:25;100346.66;;;6.21;64.46
75759;BME280;64371;47.566;19.086;2023-04-03T00:49:28;100348.34;;;6.32;63.50
75759;BME280;64371;47.566;19.086;2023-04-03T00:52:31;100348.34;;;6.32;63.40
75759;BME280;64371;47.566;19.086;2023-04-03T00:55:35;100355.69;;;6.40;63.20
75759;BME280;64371;47.566;19.086;2023-04-03T00:58:42;100350.91;;;6.27;63.34
75759;BME280;64371;47.566;19.086;2023-04-03T01:01:47;100351.47;;;6.34;64.21
75759;BME280;64371;47.566;19.086;2023-04-03T01:04:50;100352.31;;;6.39;62.79
75759;BME280;64371;47.566;19.086;2023-04-03T01:07:53;100358.59;;;6.38;62.88
75759;BME280;64371;47.566;19.086;2023-04-03T01:10:56;100358.31;;;6.40;62.40
75759;BME280;64371;47.566;19.086;2023-04-03T01:13:59;100361.69;;;6.35;62.00
75759;BME280;64371;47.566;19.086;2023-04-03T01:17:03;100362.81;;;6.44;61.65
75759;BME280;64371;47.566;19.086;2023-04-03T01:24:31;100359.63;;;6.37;62.65
75759;BME280;64371;47.566;19.086;2023-04-03T01:27:36;100357.78;;;6.38;61.74
75759;BME280;64371;47.566;19.086;2023-04-03T01:30:46;100353.84;;;6.35;61.93
75759;BME280;64371;47.566;19.086;2023-04-03T01:33:51;100350.69;;;6.33;61.88
75759;BME280;64371;47.566;19.086;2023-04-03T01:36:54;100358.25;;;6.30;62.32
75759;BME280;64371;47.566;19.086;2023-04-03T01:39:56;100361.56;;;6.20;61.96
75759;BME280;64371;47.566;19.086;2023-04-03T01:42:59;100359.88;;;6.04;62.20
75759;BME280;64371;47.566;19.086;2023-04-03T01:46:01;100360.50;;;6.16;62.14
75759;BME280;64371;47.566;19.086;2023-04-03T01:49:04;100360.53;;;6.21;61.69
75759;BME280;64371;47.566;19.086;2023-04-03T01:52:07;100363.03;;;6.06;61.81
75759;BME280;64371;47.566;19.086;2023-04-03T01:55:09;100359.88;;;6.04;61.26
75759;BME280;64371;47.566;19.086;2023-04-03T01:58:13;100370.53;;;5.97;62.00
75759;BME280;64371;47.566;19.086;2023-04-03T02:01:15;100374.59;;;6.10;61.26
75759;BME280;64371;47.566;19.086;2023-04-03T02:04:18;100374.06;;;6.13;61.52
75759;BME280;64371;47.566;19.086;2023-04-03T02:07:20;100375.13;;;6.12;61.54
75759;BME280;64371;47.566;19.086;2023-04-03T02:10:22;100382.72;;;6.14;61.86
75759;BME280;64371;47.566;19.086;2023-04-03T02:13:25;100374.97;;;5.97;61.35
75759;BME280;64371;47.566;19.086;2023-04-03T02:16:27;100380.16;;;5.92;61.60
75759;BME280;64371;47.566;19.086;2023-04-03T02:19:31;100376.16;;;5.84;62.09
75759;BME280;64371;47.566;19.086;2023-04-03T02:22:33;100373.34;;;5.69;62.44
75759;BME280;64371;47.566;19.086;2023-04-03T02:25:36;100384.56;;;5.65;63.04
75759;BME280;64371;47.566;19.086;2023-04-03T02:28:40;100374.22;;;5.53;63.37
75759;BME280;64371;47.566;19.086;2023-04-03T02:31:43;100384.09;;;5.46;63.68
75759;BME280;64371;47.566;19.086;2023-04-03T02:34:45;100384.34;;;5.45;63.64
75759;BME280;64371;47.566;19.086;2023-04-03T02:37:49;100386.38;;;5.43;63.80
75759;BME280;64371;47.566;19.086;2023-04-03T02:40:51;100383.53;;;5.44;63.93
75759;BME280;64371;47.566;19.086;2023-04-03T02:43:53;100379.19;;;5.50;63.48
75759;BME280;64371;47.566;19.086;2023-04-03T02:46:56;100381.97;;;5.43;63.67
75759;BME280;64371;47.566;19.086;2023-04-03T02:49:58;100382.69;;;5.38;63.75
75759;BME280;64371;47.566;19.086;2023-04-03T02:53:00;100376.84;;;5.31;63.89
75759;BME280;64371;47.566;19.086;2023-04-03T02:56:03;100389.75;;;5.38;63.63
75759;BME280;64371;47.566;19.086;2023-04-03T02:59:05;100381.88;;;5.38;63.87
75759;BME280;64371;47.566;19.086;2023-04-03T03:02:10;100379.28;;;5.38;63.29
75759;BME280;64371;47.566;19.086;2023-04-03T03:05:13;100379.19;;;5.28;63.56
75759;BME280;64371;47.566;19.086;2023-04-03T03:08:16;100387.84;;;5.33;63.69
75759;BME280;64371;47.566;19.086;2023-04-03T03:11:22;100383.84;;;5.26;63.85
75759;BME280;64371;47.566;19.086;2023-04-03T03:14:24;100383.00;;;5.20;64.10
75759;BME280;64371;47.566;19.086;2023-04-03T03:17:29;100386.50;;;5.09;64.54
75759;BME280;64371;47.566;19.086;2023-04-03T03:20:32;100398.53;;;5.10;64.97
75759;BME280;64371;47.566;19.086;2023-04-03T03:23:34;100392.16;;;5.01;64.51
75759;BME280;64371;47.566;19.086;2023-04-03T03:26:37;100389.94;;;4.93;64.73
75759;BME280;64371;47.566;19.086;2023-04-03T03:29:39;100398.88;;;4.97;64.59
75759;BME280;64371;47.566;19.086;2023-04-03T03:32:41;100402.63;;;5.01;64.91
75759;BME280;64371;47.566;19.086;2023-04-03T03:35:44;100402.03;;;4.99;65.49
75759;BME280;64371;47.566;19.086;2023-04-03T03:38:47;100398.09;;;4.97;65.43
75759;BME280;64371;47.566;19.086;2023-04-03T03:41:49;100397.63;;;4.83;65.44
75759;BME280;64371;47.566;19.086;2023-04-03T03:44:52;100396.00;;;4.77;65.49
75759;BME280;64371;47.566;19.086;2023-04-03T03:47:54;100394.06;;;4.72;65.55
75759;BME280;64371;47.566;19.086;2023-04-03T03:50:57;100398.69;;;4.65;66.12
75759;BME280;64371;47.566;19.086;2023-04-03T03:54:04;100394.50;;;4.64;66.21
75759;BME280;64371;47.566;19.086;2023-04-03T03:57:07;100400.81;;;4.52;66.60
75759;BME280;64371;47.566;19.086;2023-04-03T04:00:14;100402.34;;;4.48;67.09
75759;BME280;64371;47.566;19.086;2023-04-03T04:03:16;100409.38;;;4.47;67.21
75759;BME280;64371;47.566;19.086;2023-04-03T04:06:21;100404.28;;;4.41;67.40
75759;BME280;64371;47.566;19.086;2023-04-03T04:09:25;100400.91;;;4.40;67.43
75759;BME280;64371;47.566;19.086;2023-04-03T04:12:28;100400.41;;;4.27;67.32
75759;BME280;64371;47.566;19.086;2023-04-03T04:15:33;100405.44;;;4.17;68.06
75759;BME280;64371;47.566;19.086;2023-04-03T04:18:36;100404.50;;;4.06;68.23
75759;BME280;64371;47.566;19.086;2023-04-03T04:21:39;100408.72;;;3.95;68.38
75759;BME280;64371;47.566;19.086;2023-04-03T04:24:42;100416.34;;;3.97;68.96
75759;BME280;64371;47.566;19.086;2023-04-03T04:27:45;100417.59;;;3.94;69.13
75759;BME280;64371;47.566;19.086;2023-04-03T04:30:49;100423.69;;;4.00;69.18
75759;BME280;64371;47.566;19.086;2023-04-03T04:33:53;100419.25;;;4.00;68.50
75759;BME280;64371;47.566;19.086;2023-04-03T04:36:56;100415.41;;;4.03;68.59
75759;BME280;64371;47.566;19.086;2023-04-03T04:40:00;100426.00;;;4.13;68.32
75759;BME280;64371;47.566;19.086;2023-04-03T04:43:03;100434.72;;;4.19;68.07
75759;BME280;64371;47.566;19.086;2023-04-03T04:46:08;100435.47;;;4.31;67.23
75759;BME280;64371;47.566;19.086;2023-04-03T04:49:16;100438.94;;;4.36;67.58
75759;BME280;64371;47.566;19.086;2023-04-03T04:52:19;100431.69;;;4.55;66.63
75759;BME280;64371;47.566;19.086;2023-04-03T04:55:24;100428.28;;;4.54;66.90
75759;BME280;64371;47.566;19.086;2023-04-03T04:58:26;100430.72;;;4.44;66.74
75759;BME280;64371;47.566;19.086;2023-04-03T05:01:29;100425.41;;;4.39;67.15
75759;BME280;64371;47.566;19.086;2023-04-03T05:04:57;100442.25;;;4.48;66.83
75759;BME280;64371;47.566;19.086;2023-04-03T05:08:03;100426.56;;;4.60;66.40
75759;BME280;64371;47.566;19.086;2023-04-03T05:11:06;100443.41;;;4.69;66.05
75759;BME280;64371;47.566;19.086;2023-04-03T05:14:09;100434.59;;;4.75;66.13
75759;BME280;64371;47.566;19.086;2023-04-03T05:17:12;100443.63;;;4.84;65.94
75759;BME280;64371;47.566;19.086;2023-04-03T05:20:18;100443.06;;;4.82;65.63
75759;BME280;64371;47.566;19.086;2023-04-03T05:23:22;100448.59;;;4.86;65.71
75759;BME280;64371;47.566;19.086;2023-04-03T05:26:25;100443.47;;;4.91;66.12
75759;BME280;64371;47.566;19.086;2023-04-03T05:29:28;100452.94;;;4.97;65.36
75759;BME280;64371;47.566;19.086;2023-04-03T05:32:33;100442.44;;;4.75;65.95
75759;BME280;64371;47.566;19.086;2023-04-03T05:35:50;100445.19;;;5.02;65.64
75759;BME280;64371;47.566;19.086;2023-04-03T05:38:58;100439.81;;;4.92;64.85
75759;BME280;64371;47.566;19.086;2023-04-03T05:42:01;100445.91;;;4.97;65.61
75759;BME280;64371;47.566;19.086;2023-04-03T05:45:05;100442.50;;;5.13;64.54
75759;BME280;64371;47.566;19.086;2023-04-03T05:48:08;100444.16;;;6.33;60.36
75759;BME280;64371;47.566;19.086;2023-04-03T05:51:16;100448.09;;;7.04;58.55
75759;BME280;64371;47.566;19.086;2023-04-03T05:54:25;100445.81;;;7.17;58.60
75759;BME280;64371;47.566;19.086;2023-04-03T05:57:35;100458.84;;;7.49;57.60
75759;BME280;64371;47.566;19.086;2023-04-03T06:00:42;100462.03;;;7.61;56.45
75759;BME280;64371;47.566;19.086;2023-04-03T06:03:45;100468.75;;;7.99;55.09
75759;BME280;64371;47.566;19.086;2023-04-03T06:06:53;100458.25;;;8.09;55.32
75759;BME280;64371;47.566;19.086;2023-04-03T06:09:56;100456.16;;;7.39;56.69
75759;BME280;64371;47.566;19.086;2023-04-03T06:12:59;100463.31;;;7.54;55.90
75759;BME280;64371;47.566;19.086;2023-04-03T06:16:01;100466.97;;;6.69;59.16
75759;BME280;64371;47.566;19.086;2023-04-03T06:19:07;100471.41;;;6.63;59.37
75759;BME280;64371;47.566;19.086;2023-04-03T06:22:16;100465.50;;;7.20;57.71
75759;BME280;64371;47.566;19.086;2023-04-03T06:25:20;100466.13;;;8.09;54.22
75759;BME280;64371;47.566;19.086;2023-04-03T06:28:23;100473.88;;;8.81;52.02
75759;BME280;64371;47.566;19.086;2023-04-03T06:31:27;100465.56;;;9.58;49.38
75759;BME280;64371;47.566;19.086;2023-04-03T06:34:30;100468.34;;;9.82;48.18
75759;BME280;64371;47.566;19.086;2023-04-03T06:37:33;100464.41;;;9.79;47.40
75759;BME280;64371;47.566;19.086;2023-04-03T06:40:36;100461.91;;;10.13;45.93
75759;BME280;64371;47.566;19.086;2023-04-03T06:43:38;100473.06;;;8.60;49.71
75759;BME280;64371;47.566;19.086;2023-04-03T06:46:41;100478.47;;;7.98;51.45
75759;BME280;64371;47.566;19.086;2023-04-03T06:49:44;100479.13;;;7.69;51.38
75759;BME280;64371;47.566;19.086;2023-04-03T06:52:49;100479.94;;;7.74;52.11
75759;BME280;64371;47.566;19.086;2023-04-03T06:55:51;100467.88;;;7.78;52.44
75759;BME280;64371;47.566;19.086;2023-04-03T06:58:55;100488.75;;;8.20;51.47
75759;BME280;64371;47.566;19.086;2023-04-03T07:01:59;100485.06;;;8.11;51.47
75759;BME280;64371;47.566;19.086;2023-04-03T07:05:02;100482.00;;;8.39;49.86
75759;BME280;64371;47.566;19.086;2023-04-03T07:08:04;100498.69;;;8.08;51.16
75759;BME280;64371;47.566;19.086;2023-04-03T07:11:08;100484.78;;;8.13;50.73
75759;BME280;64371;47.566;19.086;2023-04-03T07:14:12;100507.63;;;8.12;50.41
75759;BME280;64371;47.566;19.086;2023-04-03T07:17:15;100498.25;;;8.36;49.73
75759;BME280;64371;47.566;19.086;2023-04-03T07:20:23;100491.97;;;8.42;49.31
75759;BME280;64371;47.566;19.086;2023-04-03T07:23:26;100515.34;;;8.44;49.41
75759;BME280;64371;47.566;19.086;2023-04-03T07:26:28;100513.28;;;8.61;49.31
75759;BME280;64371;47.566;19.086;2023-04-03T07:29:31;100506.97;;;8.72;48.83
75759;BME280;64371;47.566;19.086;2023-04-03T07:32:33;100519.09;;;9.03;51.07
75759;BME280;64371;47.566;19.086;2023-04-03T07:35:36;100516.75;;;9.91;48.43
75759;BME280;64371;47.566;19.086;2023-04-03T07:38:38;100514.34;;;11.92;42.77
75759;BME280;64371;47.566;19.086;2023-04-03T07:41:41;100515.84;;;10.26;50.29
75759;BME280;64371;47.566;19.086;2023-04-03T07:44:44;100516.47;;;8.93;45.67
75759;BME280;64371;47.566;19.086;2023-04-03T07:47:46;100516.59;;;10.31;44.03
75759;BME280;64371;47.566;19.086;2023-04-03T07:50:50;100513.53;;;10.58;43.02
75759;BME280;64371;47.566;19.086;2023-04-03T07:53:52;100518.06;;;10.86;43.70
75759;BME280;64371;47.566;19.086;2023-04-03T07:56:54;100524.75;;;13.14;46.83
75759;BME280;64371;47.566;19.086;2023-04-03T07:59:57;100528.69;;;16.92;44.87
75759;BME280;64371;47.566;19.086;2023-04-03T08:02:59;100522.09;;;14.36;35.88
75759;BME280;64371;47.566;19.086;2023-04-03T08:06:06;100524.41;;;13.88;39.58
75759;BME280;64371;47.566;19.086;2023-04-03T08:09:17;100524.09;;;13.22;40.35
75759;BME280;64371;47.566;19.086;2023-04-03T08:12:19;100535.31;;;13.46;45.21
75759;BME280;64371;47.566;19.086;2023-04-03T08:15:22;100535.13;;;14.82;47.36
75759;BME280;64371;47.566;19.086;2023-04-03T08:18:24;100528.66;;;13.49;36.01
75759;BME280;64371;47.566;19.086;2023-04-03T08:21:27;100533.22;;;12.04;39.18
75759;BME280;64371;47.566;19.086;2023-04-03T08:24:31;100523.59;;;11.18;42.02
75759;BME280;64371;47.566;19.086;2023-04-03T08:27:33;100525.44;;;11.70;40.09
75759;BME280;64371;47.566;19.086;2023-04-03T08:30:40;100530.41;;;10.91;41.57
75759;BME280;64371;47.566;19.086;2023-04-03T08:33:43;100531.63;;;11.03;41.40
75759;BME280;64371;47.566;19.086;2023-04-03T08:36:45;100532.03;;;10.87;41.72
75759;BME280;64371;47.566;19.086;2023-04-03T08:39:48;100535.63;;;11.01;42.16
75759;BME280;64371;47.566;19.086;2023-04-03T08:46:00;100528.84;;;10.02;43.12
75759;BME280;64371;47.566;19.086;2023-04-03T08:49:21;100532.22;;;10.08;43.40
75759;BME280;64371;47.566;19.086;2023-04-03T08:52:37;100517.47;;;10.94;41.69
75759;BME280;64371;47.566;19.086;2023-04-03T08:55:45;100533.03;;;12.19;38.33
75759;BME280;64371;47.566;19.086;2023-04-03T08:58:52;100527.31;;;11.70;38.94
75759;BME280;64371;47.566;19.086;2023-04-03T09:01:59;100531.13;;;11.82;38.62
75759;BME280;64371;47.566;19.086;2023-04-03T09:05:12;100526.94;;;13.25;36.40
75759;BME280;64371;47.566;19.086;2023-04-03T09:08:27;100528.88;;;12.88;36.64
75759;BME280;64371;47.566;19.086;2023-04-03T09:14:39;100538.44;;;13.62;35.42
75759;BME280;64371;47.566;19.086;2023-04-03T09:18:05;100527.28;;;13.92;33.91
75759;BME280;64371;47.566;19.086;2023-04-03T09:21:46;100523.41;;;12.65;37.09
75759;BME280;64371;47.566;19.086;2023-04-03T09:24:52;100529.50;;;14.61;33.92
75759;BME280;64371;47.566;19.086;2023-04-03T09:27:59;100536.34;;;17.86;37.79
75759;BME280;64371;47.566;19.086;2023-04-03T09:31:10;100530.38;;;19.25;26.42
75759;BME280;64371;47.566;19.086;2023-04-03T09:34:36;100528.00;;;18.17;34.72
75759;BME280;64371;47.566;19.086;2023-04-03T09:37:44;100534.00;;;16.32;31.01
75759;BME280;64371;47.566;19.086;2023-04-03T09:41:05;100531.16;;;13.40;34.95
75759;BME280;64371;47.566;19.086;2023-04-03T09:44:29;100520.97;;;12.69;40.51
75759;BME280;64371;47.566;19.086;2023-04-03T09:47:36;100519.78;;;11.82;37.37
75759;BME280;64371;47.566;19.086;2023-04-03T09:54:31;100533.00;;;11.82;38.34
75759;BME280;64371;47.566;19.086;2023-04-03T09:57:33;100530.31;;;11.58;38.86
75759;BME280;64371;47.566;19.086;2023-04-03T10:00:38;100526.81;;;11.39;39.57
75759;BME280;64371;47.566;19.086;2023-04-03T10:03:42;100513.88;;;11.14;39.96
75759;BME280;64371;47.566;19.086;2023-04-03T10:06:54;100527.38;;;11.07;39.61
75759;BME280;64371;47.566;19.086;2023-04-03T10:09:59;100525.94;;;11.20;39.40
75759;BME280;64371;47.566;19.086;2023-04-03T10:13:09;100519.97;;;11.09;39.73
75759;BME280;64371;47.566;19.086;2023-04-03T10:16:43;100531.59;;;11.08;40.05
75759;BME280;64371;47.566;19.086;2023-04-03T10:23:54;100519.66;;;11.68;38.76
75759;BME280;64371;47.566;19.086;2023-04-03T10:27:11;100529.28;;;10.68;38.42
75759;BME280;64371;47.566;19.086;2023-04-03T10:30:25;100529.88;;;11.22;38.41
75759;BME280;64371;47.566;19.086;2023-04-03T10:49:49;100522.59;;;11.09;38.96
75759;BME280;64371;47.566;19.086;2023-04-03T10:53:08;100517.53;;;11.18;38.03
75759;BME280;64371;47.566;19.086;2023-04-03T10:56:26;100509.63;;;11.42;38.83
75759;BME280;64371;47.566;19.086;2023-04-03T10:59:33;100503.31;;;11.14;39.02
75759;BME280;64371;47.566;19.086;2023-04-03T11:02:44;100513.91;;;11.38;38.37
75759;BME280;64371;47.566;19.086;2023-04-03T11:05:51;100521.13;;;11.51;37.81
75759;BME280;64371;47.566;19.086;2023-04-03T11:09:41;100518.50;;;11.51;37.20
75759;BME280;64371;47.566;19.086;2023-04-03T11:12:42;100517.75;;;11.74;37.34
75759;BME280;64371;47.566;19.086;2023-04-03T11:15:48;100505.50;;;11.59;37.29
75759;BME280;64371;47.566;19.086;2023-04-03T11:19:04;100506.25;;;11.36;35.96
75759;BME280;64371;47.566;19.086;2023-04-03T11:25:23;100513.84;;;11.71;37.48
75759;BME280;64371;47.566;19.086;2023-04-03T11:28:26;100510.84;;;12.39;37.13
75759;BME280;64371;47.566;19.086;2023-04-03T11:31:38;100512.53;;;12.67;35.27
75759;BME280;64371;47.566;19.086;2023-04-03T11:34:47;100502.88;;;12.02;36.50
75759;BME280;64371;47.566;19.086;2023-04-03T11:37:52;100495.94;;;11.63;37.25
75759;BME280;64371;47.566;19.086;2023-04-03T11:40:56;100491.31;;;11.26;37.56
75759;BME280;64371;47.566;19.086;2023-04-03T11:44:05;100483.22;;;11.18;38.22
75759;BME280;64371;47.566;19.086;2023-04-03T11:51:38;100469.19;;;11.22;37.90
75759;BME280;64371;47.566;19.086;2023-04-03T11:54:45;100487.00;;;11.36;37.69
75759;BME280;64371;47.566;19.086;2023-04-03T12:01:03;100492.97;;;10.89;38.24
75759;BME280;64371;47.566;19.086;2023-04-03T12:04:08;100492.31;;;11.07;37.71
75759;BME280;64371;47.566;19.086;2023-04-03T12:07:18;100481.41;;;11.13;38.13
75759;BME280;64371;47.566;19.086;2023-04-03T12:10:20;100481.28;;;11.28;38.01
75759;BME280;64371;47.566;19.086;2023-04-03T12:14:02;100485.50;;;11.01;37.96
75759;BME280;64371;47.566;19.086;2023-04-03T12:16:59;100477.06;;;10.70;38.73
75759;BME280;64371;47.566;19.086;2023-04-03T12:24:04;100480.38;;;11.09;39.08
75759;BME280;64371;47.566;19.086;2023-04-03T12:27:38;100479.25;;;11.44;39.09
75759;BME280;64371;47.566;19.086;2023-04-03T12:30:44;100481.88;;;10.92;38.54
75759;BME280;64371;47.566;19.086;2023-04-03T12:34:01;100471.38;;;10.87;38.72
75759;BME280;64371;47.566;19.086;2023-04-03T12:40:51;100469.84;;;11.09;38.96
75759;BME280;64371;47.566;19.086;2023-04-03T12:44:26;100467.81;;;11.01;38.43
75759;BME280;64371;47.566;19.086;2023-04-03T12:47:35;100465.75;;;11.22;37.74
75759;BME280;64371;47.566;19.086;2023-04-03T12:50:41;100467.44;;;11.13;37.46
75759;BME280;64371;47.566;19.086;2023-04-03T12:53:44;100468.09;;;11.28;37.27
75759;BME280;64371;47.566;19.086;2023-04-03T12:56:49;100464.66;;;11.75;36.33
75759;BME280;64371;47.566;19.086;2023-04-03T12:59:53;100466.69;;;11.60;36.46
75759;BME280;64371;47.566;19.086;2023-04-03T13:02:56;100460.53;;;11.17;37.56
75759;BME280;64371;47.566;19.086;2023-04-03T13:06:02;100453.09;;;11.48;37.15
75759;BME280;64371;47.566;19.086;2023-04-03T13:09:24;100450.59;;;11.56;37.71
75759;BME280;64371;47.566;19.086;2023-04-03T13:12:28;100437.19;;;11.53;37.11
75759;BME280;64371;47.566;19.086;2023-04-03T13:15:45;100450.16;;;11.02;37.98
75759;BME280;64371;47.566;19.086;2023-04-03T13:18:53;100441.56;;;11.62;36.67
75759;BME280;64371;47.566;19.086;2023-04-03T13:22:04;100434.59;;;11.48;36.77
75759;BME280;64371;47.566;19.086;2023-04-03T13:25:13;100427.34;;;11.11;36.98
75759;BME280;64371;47.566;19.086;2023-04-03T13:28:23;100427.84;;;10.89;37.26
75759;BME280;64371;47.566;19.086;2023-04-03T13:31:30;100434.22;;;11.36;37.11
75759;BME280;64371;47.566;19.086;2023-04-03T13:34:51;100429.19;;;11.81;35.61
75759;BME280;64371;47.566;19.086;2023-04-03T13:37:56;100425.91;;;11.89;35.89
75759;BME280;64371;47.566;19.086;2023-04-03T13:41:02;100411.63;;;11.48;35.96
75759;BME280;64371;47.566;19.086;2023-04-03T13:47:23;100424.97;;;11.38;36.30
75759;BME280;64371;47.566;19.086;2023-04-03T13:50:27;100421.03;;;11.36;36.44
75759;BME280;64371;47.566;19.086;2023-04-03T13:53:32;100415.50;;;11.79;35.92
75759;BME280;64371;47.566;19.086;2023-04-03T13:56:37;100406.78;;;11.97;36.17
75759;BME280;64371;47.566;19.086;2023-04-03T13:59:40;100415.03;;;11.72;36.09
75759;BME280;64371;47.566;19.086;2023-04-03T14:02:47;100415.94;;;11.39;36.33
75759;BME280;64371;47.566;19.086;2023-04-03T14:05:50;100403.47;;;10.97;36.92
75759;BME280;64371;47.566;19.086;2023-04-03T14:08:53;100403.50;;;11.21;36.12
75759;BME280;64371;47.566;19.086;2023-04-03T14:12:00;100403.63;;;11.11;37.00
75759;BME280;64371;47.566;19.086;2023-04-03T14:15:20;100404.72;;;11.05;36.98
75759;BME280;64371;47.566;19.086;2023-04-03T14:18:24;100408.19;;;11.24;36.49
75759;BME280;64371;47.566;19.086;2023-04-03T14:21:30;100391.69;;;10.61;37.77
75759;BME280;64371;47.566;19.086;2023-04-03T14:24:32;100390.91;;;10.65;38.07
75759;BME280;64371;47.566;19.086;2023-04-03T14:27:40;100372.16;;;10.67;37.92
75759;BME280;64371;47.566;19.086;2023-04-03T14:30:44;100376.03;;;10.98;37.26
75759;BME280;64371;47.566;19.086;2023-04-03T14:33:47;100384.34;;;11.10;36.49
75759;BME280;64371;47.566;19.086;2023-04-03T14:36:50;100387.94;;;10.96;37.09
75759;BME280;64371;47.566;19.086;2023-04-03T14:39:55;100407.03;;;11.11;37.65
75759;BME280;64371;47.566;19.086;2023-04-03T14:42:58;100393.47;;;10.99;37.85
75759;BME280;64371;47.566;19.086;2023-04-03T14:46:01;100395.34;;;11.17;36.95
75759;BME280;64371;47.566;19.086;2023-04-03T14:49:12;100401.97;;;10.91;37.95
75759;BME280;64371;47.566;19.086;2023-04-03T14:52:26;100395.66;;;10.92;37.55
75759;BME280;64371;47.566;19.086;2023-04-03T14:55:29;100397.78;;;11.14;37.53
75759;BME280;64371;47.566;19.086;2023-04-03T14:58:31;100403.59;;;10.87;37.91
75759;BME280;64371;47.566;19.086;2023-04-03T15:01:34;100398.88;;;10.84;37.50
75759;BME280;64371;47.566;19.086;2023-04-03T15:04:36;100403.25;;;10.94;38.06
75759;BME280;64371;47.566;19.086;2023-04-03T15:07:42;100400.97;;;10.87;37.89
75759;BME280;64371;47.566;19.086;2023-04-03T15:10:45;100399.97;;;10.78;37.60
75759;BME280;64371;47.566;19.086;2023-04-03T15:13:47;100404.19;;;10.79;38.28
75759;BME280;64371;47.566;19.086;2023-04-03T15:16:49;100402.72;;;10.68;38.37
75759;BME280;64371;47.566;19.086;2023-04-03T15:19:52;100404.84;;;10.66;38.59
75759;BME280;64371;47.566;19.086;2023-04-03T15:22:54;100395.88;;;10.67;38.55
75759;BME280;64371;47.566;19.086;2023-04-03T15:25:58;100398.94;;;10.50;38.91
75759;BME280;64371;47.566;19.086;2023-04-03T15:29:01;100397.38;;;10.44;38.81
75759;BME280;64371;47.566;19.086;2023-04-03T15:32:04;100394.44;;;10.51;38.39
75759;BME280;64371;47.566;19.086;2023-04-03T15:35:06;100394.56;;;10.36;39.85
75759;BME280;64371;47.566;19.086;2023-04-03T15:38:09;100384.53;;;10.38;40.37
75759;BME280;64371;47.566;19.086;2023-04-03T15:41:12;100384.03;;;10.36;40.87
75759;BME280;64371;47.566;19.086;2023-04-03T15:44:14;100404.38;;;10.25;41.13
75759;BME280;64371;47.566;19.086;2023-04-03T15:47:19;100400.53;;;10.08;41.39
75759;BME280;64371;47.566;19.086;2023-04-03T15:50:22;100406.03;;;10.16;41.29
75759;BME280;64371;47.566;19.086;2023-04-03T15:53:26;100418.88;;;9.79;41.34
75759;BME280;64371;47.566;19.086;2023-04-03T15:56:28;100404.78;;;9.55;39.23
75759;BME280;64371;47.566;19.086;2023-04-03T15:59:31;100418.28;;;9.28;39.73
75759;BME280;64371;47.566;19.086;2023-04-03T16:02:34;100413.34;;;9.06;39.91
75759;BME280;64371;47.566;19.086;2023-04-03T16:05:37;100404.16;;;9.04;40.54
75759;BME280;64371;47.566;19.086;2023-04-03T16:08:41;100422.84;;;8.87;39.93
75759;BME280;64371;47.566;19.086;2023-04-03T16:11:43;100416.31;;;8.69;39.47
75759;BME280;64371;47.566;19.086;2023-04-03T16:14:46;100413.97;;;8.43;39.83
75759;BME280;64371;47.566;19.086;2023-04-03T16:17:48;100419.75;;;8.50;40.11
75759;BME280;64371;47.566;19.086;2023-04-03T16:20:50;100414.50;;;8.45;40.52
75759;BME280;64371;47.566;19.086;2023-04-03T16:23:53;100414.50;;;8.35;40.98
75759;BME280;64371;47.566;19.086;2023-04-03T16:26:55;100426.56;;;8.36;40.80
75759;BME280;64371;47.566;19.086;2023-04-03T16:30:01;100427.84;;;8.18;40.75
75759;BME280;64371;47.566;19.086;2023-04-03T16:33:04;100424.91;;;8.04;41.24
75759;BME280;64371;47.566;19.086;2023-04-03T16:36:06;100436.22;;;8.10;41.64
75759;BME280;64371;47.566;19.086;2023-04-03T16:39:09;100445.94;;;8.20;41.38
75759;BME280;64371;47.566;19.086;2023-04-03T16:42:14;100455.63;;;8.09;40.96
75759;BME280;64371;47.566;19.086;2023-04-03T16:45:17;100461.44;;;8.16;40.77
75759;BME280;64371;47.566;19.086;2023-04-03T16:48:19;100469.53;;;8.04;41.18
75759;BME280;64371;47.566;19.086;2023-04-03T16:51:22;100473.22;;;7.98;41.19
75759;BME280;64371;47.566;19.086;2023-04-03T16:54:25;100477.13;;;7.91;40.82
75759;BME280;64371;47.566;19.086;2023-04-03T16:57:27;100482.22;;;7.56;41.29
75759;BME280;64371;47.566;19.086;2023-04-03T17:00:32;100501.63;;;7.55;41.26